sensor_id;sensor_type;location;lat;lon;timestamp;pressure;altitude;pressure_sealevel;temperature;humidity
57708;BME280;43540;51.690;9.562;2023-07-29T00:01:27;98520.78;;;17.84;100.00
57708;BME280;43540;51.690;9.562;2023-07-29T00:03:54;98535.13;;;17.97;100.00
57708;BME280;43540;51.690;9.562;2023-07-29T00:06:20;98539.00;;;17.94;100.00
57708;BME280;43540;51.690;9.562;2023-07-29T00:08:47;98497.72;;;17.63;100.00
57708;BME280;43540;51.690;9.562;2023-07-29T00:11:14;98494.38;;;17.55;100.00
57708;BME280;43540;51.690;9.562;2023-07-29T00:13:40;98540.78;;;17.87;100.00
57708;BME280;43540;51.690;9.562;2023-07-29T00:16:07;98508.28;;;17.57;100.00
57708;BME280;43540;51.690;9.562;2023-07-29T00:18:33;98411.56;;;16.97;100.00
57708;BME280;43540;51.690;9.562;2023-07-29T00:21:00;98457.09;;;17.07;100.00
57708;BME280;43540;51.690;9.562;2023-07-29T00:23:28;98478.41;;;17.20;100.00
57708;BME280;43540;51.690;9.562;2023-07-29T00:25:55;98552.31;;;17.58;100.00
57708;BME280;43540;51.690;9.562;2023-07-29T00:28:22;98528.91;;;17.40;100.00
57708;BME280;43540;51.690;9.562;2023-07-29T00:30:49;98538.13;;;17.44;100.00
57708;BME280;43540;51.690;9.562;2023-07-29T00:33:15;98498.31;;;17.16;100.00
57708;BME280;43540;51.690;9.562;2023-07-29T00:35:42;98482.16;;;16.90;100.00
57708;BME280;43540;51.690;9.562;2023-07-29T00:38:09;98473.66;;;16.94;100.00
57708;BME280;43540;51.690;9.562;2023-07-29T00:40:35;98495.78;;;17.08;100.00
57708;BME280;43540;51.690;9.562;2023-07-29T00:43:03;98505.44;;;17.16;100.00
57708;BME280;43540;51.690;9.562;2023-07-29T00:45:31;98495.47;;;16.96;100.00
57708;BME280;43540;51.690;9.562;2023-07-29T00:47:59;98501.59;;;16.97;100.00
57708;BME280;43540;51.690;9.562;2023-07-29T00:50:27;98475.41;;;16.87;100.00
57708;BME280;43540;51.690;9.562;2023-07-29T00:52:55;98505.94;;;17.04;100.00
57708;BME280;43540;51.690;9.562;2023-07-29T00:55:23;98536.38;;;17.30;100.00
57708;BME280;43540;51.690;9.562;2023-07-29T00:57:51;98440.78;;;16.67;100.00
57708;BME280;43540;51.690;9.562;2023-07-29T01:00:20;98454.34;;;16.79;100.00
57708;BME280;43540;51.690;9.562;2023-07-29T01:02:46;98413.91;;;16.49;100.00
57708;BME280;43540;51.690;9.562;2023-07-29T01:05:16;98476.44;;;16.86;100.00
57708;BME280;43540;51.690;9.562;2023-07-29T01:07:58;98460.84;;;16.62;100.00
57708;BME280;43540;51.690;9.562;2023-07-29T01:10:31;98525.19;;;17.13;100.00
57708;BME280;43540;51.690;9.562;2023-07-29T01:13:13;98537.69;;;17.19;100.00
57708;BME280;43540;51.690;9.562;2023-07-29T01:15:49;98485.00;;;16.88;100.00
57708;BME280;43540;51.690;9.562;2023-07-29T01:18:23;98481.13;;;16.69;100.00
57708;BME280;43540;51.690;9.562;2023-07-29T01:20:53;98491.69;;;16.84;100.00
57708;BME280;43540;51.690;9.562;2023-07-29T01:23:28;98459.03;;;16.77;100.00
57708;BME280;43540;51.690;9.562;2023-07-29T01:25:55;98470.16;;;16.72;100.00
57708;BME280;43540;51.690;9.562;2023-07-29T01:28:22;98373.94;;;16.23;100.00
57708;BME280;43540;51.690;9.562;2023-07-29T01:30:53;98363.72;;;16.19;100.00
57708;BME280;43540;51.690;9.562;2023-07-29T01:33:30;98479.31;;;16.91;100.00
57708;BME280;43540;51.690;9.562;2023-07-29T01:36:07;98464.22;;;16.85;100.00
57708;BME280;43540;51.690;9.562;2023-07-29T01:38:38;98466.78;;;17.00;100.00
57708;BME280;43540;51.690;9.562;2023-07-29T01:41:08;98452.53;;;16.80;100.00
57708;BME280;43540;51.690;9.562;2023-07-29T01:43:36;98521.03;;;17.25;100.00
57708;BME280;43540;51.690;9.562;2023-07-29T01:46:09;98519.69;;;17.36;100.00
57708;BME280;43540;51.690;9.562;2023-07-29T01:48:37;98517.03;;;17.36;100.00
57708;BME280;43540;51.690;9.562;2023-07-29T01:51:04;98462.50;;;16.77;100.00
57708;BME280;43540;51.690;9.562;2023-07-29T01:53:32;98379.31;;;16.50;100.00
57708;BME280;43540;51.690;9.562;2023-07-29T01:55:59;98414.59;;;16.72;100.00
57708;BME280;43540;51.690;9.562;2023-07-29T01:58:29;98448.41;;;16.92;100.00
57708;BME280;43540;51.690;9.562;2023-07-29T02:00:56;98396.34;;;16.63;100.00
57708;BME280;43540;51.690;9.562;2023-07-29T02:03:22;98451.47;;;16.95;100.00
57708;BME280;43540;51.690;9.562;2023-07-29T02:05:49;98464.44;;;16.90;100.00
57708;BME280;43540;51.690;9.562;2023-07-29T02:08:16;98471.72;;;17.03;100.00
57708;BME280;43540;51.690;9.562;2023-07-29T02:10:42;98473.59;;;17.09;100.00
57708;BME280;43540;51.690;9.562;2023-07-29T02:13:11;98472.97;;;17.07;100.00
57708;BME280;43540;51.690;9.562;2023-07-29T02:15:38;98468.13;;;17.11;100.00
57708;BME280;43540;51.690;9.562;2023-07-29T02:18:05;98470.09;;;17.23;100.00
57708;BME280;43540;51.690;9.562;2023-07-29T02:20:33;98503.75;;;17.51;100.00
57708;BME280;43540;51.690;9.562;2023-07-29T02:23:00;98342.56;;;16.56;100.00
57708;BME280;43540;51.690;9.562;2023-07-29T02:25:26;98417.06;;;16.95;100.00
57708;BME280;43540;51.690;9.562;2023-07-29T02:27:53;98453.38;;;17.23;100.00
57708;BME280;43540;51.690;9.562;2023-07-29T02:30:21;98492.53;;;17.49;100.00
57708;BME280;43540;51.690;9.562;2023-07-29T02:32:47;98398.47;;;16.89;100.00
57708;BME280;43540;51.690;9.562;2023-07-29T02:35:14;98475.34;;;17.45;100.00
57708;BME280;43540;51.690;9.562;2023-07-29T02:37:41;98422.66;;;17.07;100.00
57708;BME280;43540;51.690;9.562;2023-07-29T02:40:08;98423.94;;;17.11;100.00
57708;BME280;43540;51.690;9.562;2023-07-29T02:42:34;98435.72;;;17.30;100.00
57708;BME280;43540;51.690;9.562;2023-07-29T02:45:01;98386.81;;;17.04;100.00
57708;BME280;43540;51.690;9.562;2023-07-29T02:47:27;98429.75;;;17.28;100.00
57708;BME280;43540;51.690;9.562;2023-07-29T02:49:54;98414.97;;;17.12;100.00
57708;BME280;43540;51.690;9.562;2023-07-29T02:52:20;98434.22;;;17.21;100.00
57708;BME280;43540;51.690;9.562;2023-07-29T02:54:47;98362.53;;;16.58;100.00
57708;BME280;43540;51.690;9.562;2023-07-29T02:57:14;98394.69;;;16.76;100.00
57708;BME280;43540;51.690;9.562;2023-07-29T02:59:40;98415.78;;;16.91;100.00
57708;BME280;43540;51.690;9.562;2023-07-29T03:02:07;98392.25;;;16.75;100.00
57708;BME280;43540;51.690;9.562;2023-07-29T03:04:33;98436.69;;;17.01;100.00
57708;BME280;43540;51.690;9.562;2023-07-29T03:07:00;98357.56;;;16.70;100.00
57708;BME280;43540;51.690;9.562;2023-07-29T03:09:27;98391.22;;;16.97;100.00
57708;BME280;43540;51.690;9.562;2023-07-29T03:11:54;98374.72;;;16.95;100.00
57708;BME280;43540;51.690;9.562;2023-07-29T03:14:21;98355.91;;;16.90;100.00
57708;BME280;43540;51.690;9.562;2023-07-29T03:16:47;98390.19;;;17.20;100.00
57708;BME280;43540;51.690;9.562;2023-07-29T03:19:15;98452.66;;;17.63;100.00
57708;BME280;43540;51.690;9.562;2023-07-29T03:21:41;98371.84;;;17.18;100.00
57708;BME280;43540;51.690;9.562;2023-07-29T03:24:08;98417.31;;;17.50;100.00
57708;BME280;43540;51.690;9.562;2023-07-29T03:26:34;98429.56;;;17.51;100.00
57708;BME280;43540;51.690;9.562;2023-07-29T03:29:01;98393.41;;;17.15;100.00
57708;BME280;43540;51.690;9.562;2023-07-29T03:31:28;98415.38;;;17.37;100.00
57708;BME280;43540;51.690;9.562;2023-07-29T03:33:54;98378.94;;;17.11;100.00
57708;BME280;43540;51.690;9.562;2023-07-29T03:36:21;98408.84;;;17.33;100.00
57708;BME280;43540;51.690;9.562;2023-07-29T03:38:47;98416.38;;;17.36;100.00
57708;BME280;43540;51.690;9.562;2023-07-29T03:41:14;98401.75;;;17.40;100.00
57708;BME280;43540;51.690;9.562;2023-07-29T03:43:40;98379.50;;;17.34;100.00
57708;BME280;43540;51.690;9.562;2023-07-29T03:46:07;98387.16;;;17.51;100.00
57708;BME280;43540;51.690;9.562;2023-07-29T03:48:37;98384.50;;;17.51;100.00
57708;BME280;43540;51.690;9.562;2023-07-29T03:51:04;98347.50;;;17.29;100.00
57708;BME280;43540;51.690;9.562;2023-07-29T03:53:30;98364.19;;;17.30;100.00
57708;BME280;43540;51.690;9.562;2023-07-29T03:55:57;98382.22;;;17.41;100.00
57708;BME280;43540;51.690;9.562;2023-07-29T03:58:23;98381.13;;;17.35;100.00
57708;BME280;43540;51.690;9.562;2023-07-29T04:00:50;98379.56;;;17.41;100.00
57708;BME280;43540;51.690;9.562;2023-07-29T04:03:16;98349.50;;;17.27;100.00
57708;BME280;43540;51.690;9.562;2023-07-29T04:05:43;98378.59;;;17.49;100.00
57708;BME280;43540;51.690;9.562;2023-07-29T04:08:09;98366.72;;;17.45;100.00
57708;BME280;43540;51.690;9.562;2023-07-29T04:10:36;98373.50;;;17.47;100.00
57708;BME280;43540;51.690;9.562;2023-07-29T04:13:04;98399.88;;;17.62;100.00
57708;BME280;43540;51.690;9.562;2023-07-29T04:15:30;98376.16;;;17.47;100.00
57708;BME280;43540;51.690;9.562;2023-07-29T04:17:57;98369.34;;;17.38;100.00
57708;BME280;43540;51.690;9.562;2023-07-29T04:20:24;98354.84;;;17.34;100.00
57708;BME280;43540;51.690;9.562;2023-07-29T04:22:50;98334.34;;;17.15;100.00
57708;BME280;43540;51.690;9.562;2023-07-29T04:25:17;98377.91;;;17.40;100.00
57708;BME280;43540;51.690;9.562;2023-07-29T04:27:43;98359.91;;;17.29;100.00
57708;BME280;43540;51.690;9.562;2023-07-29T04:30:10;98340.72;;;17.27;100.00
57708;BME280;43540;51.690;9.562;2023-07-29T04:32:37;98352.25;;;17.41;100.00
57708;BME280;43540;51.690;9.562;2023-07-29T04:35:03;98335.91;;;17.37;100.00
57708;BME280;43540;51.690;9.562;2023-07-29T04:37:30;98350.50;;;17.54;100.00
57708;BME280;43540;51.690;9.562;2023-07-29T04:39:56;98377.09;;;17.68;100.00
57708;BME280;43540;51.690;9.562;2023-07-29T04:42:23;98354.16;;;17.53;100.00
57708;BME280;43540;51.690;9.562;2023-07-29T04:44:49;98343.94;;;17.50;100.00
57708;BME280;43540;51.690;9.562;2023-07-29T04:47:16;98341.50;;;17.49;100.00
57708;BME280;43540;51.690;9.562;2023-07-29T04:49:43;98342.75;;;17.53;100.00
57708;BME280;43540;51.690;9.562;2023-07-29T04:52:09;98363.84;;;17.68;100.00
57708;BME280;43540;51.690;9.562;2023-07-29T04:54:36;98361.09;;;17.54;100.00
57708;BME280;43540;51.690;9.562;2023-07-29T04:57:02;98371.47;;;17.49;100.00
57708;BME280;43540;51.690;9.562;2023-07-29T04:59:29;98367.00;;;17.22;100.00
57708;BME280;43540;51.690;9.562;2023-07-29T05:01:55;98361.25;;;17.18;100.00
57708;BME280;43540;51.690;9.562;2023-07-29T05:04:23;98348.53;;;17.07;100.00
57708;BME280;43540;51.690;9.562;2023-07-29T05:06:49;98407.53;;;17.50;100.00
57708;BME280;43540;51.690;9.562;2023-07-29T05:09:18;98371.13;;;17.31;100.00
57708;BME280;43540;51.690;9.562;2023-07-29T05:11:46;98342.47;;;17.13;100.00
57708;BME280;43540;51.690;9.562;2023-07-29T05:14:14;98365.16;;;17.22;100.00
57708;BME280;43540;51.690;9.562;2023-07-29T05:16:41;98410.81;;;17.52;100.00
57708;BME280;43540;51.690;9.562;2023-07-29T05:19:07;98353.13;;;17.20;100.00
57708;BME280;43540;51.690;9.562;2023-07-29T05:21:34;98423.59;;;17.70;100.00
57708;BME280;43540;51.690;9.562;2023-07-29T05:24:01;98366.25;;;17.34;100.00
57708;BME280;43540;51.690;9.562;2023-07-29T05:26:27;98417.91;;;17.73;100.00
57708;BME280;43540;51.690;9.562;2023-07-29T05:28:54;98352.06;;;17.42;100.00
57708;BME280;43540;51.690;9.562;2023-07-29T05:31:20;98343.69;;;17.39;100.00
57708;BME280;43540;51.690;9.562;2023-07-29T05:33:46;98374.19;;;17.62;100.00
57708;BME280;43540;51.690;9.562;2023-07-29T05:36:13;98309.41;;;17.30;100.00
57708;BME280;43540;51.690;9.562;2023-07-29T05:38:39;98373.66;;;17.74;100.00
57708;BME280;43540;51.690;9.562;2023-07-29T05:41:06;98316.44;;;17.51;100.00
57708;BME280;43540;51.690;9.562;2023-07-29T05:43:33;98356.56;;;17.76;100.00
57708;BME280;43540;51.690;9.562;2023-07-29T05:45:59;98349.81;;;17.74;100.00
57708;BME280;43540;51.690;9.562;2023-07-29T05:48:26;98354.56;;;17.85;100.00
57708;BME280;43540;51.690;9.562;2023-07-29T05:50:52;98338.03;;;17.76;100.00
57708;BME280;43540;51.690;9.562;2023-07-29T05:53:19;98359.06;;;17.91;100.00
57708;BME280;43540;51.690;9.562;2023-07-29T05:55:45;98365.84;;;18.00;100.00
57708;BME280;43540;51.690;9.562;2023-07-29T05:58:12;98321.91;;;17.78;100.00
57708;BME280;43540;51.690;9.562;2023-07-29T06:00:38;98356.25;;;17.99;100.00
57708;BME280;43540;51.690;9.562;2023-07-29T06:03:05;98340.91;;;17.88;100.00
57708;BME280;43540;51.690;9.562;2023-07-29T06:05:31;98351.56;;;17.95;100.00
57708;BME280;43540;51.690;9.562;2023-07-29T06:07:58;98376.13;;;18.16;100.00
57708;BME280;43540;51.690;9.562;2023-07-29T06:10:25;98336.31;;;18.03;100.00
57708;BME280;43540;51.690;9.562;2023-07-29T06:12:51;98368.16;;;18.16;100.00
57708;BME280;43540;51.690;9.562;2023-07-29T06:15:18;98308.69;;;17.91;100.00
57708;BME280;43540;51.690;9.562;2023-07-29T06:17:48;98395.66;;;18.57;100.00
57708;BME280;43540;51.690;9.562;2023-07-29T06:20:15;98331.25;;;18.15;100.00
57708;BME280;43540;51.690;9.562;2023-07-29T06:22:42;98266.47;;;17.76;100.00
57708;BME280;43540;51.690;9.562;2023-07-29T06:25:09;98360.69;;;18.33;100.00
57708;BME280;43540;51.690;9.562;2023-07-29T06:27:36;98384.63;;;18.53;100.00
57708;BME280;43540;51.690;9.562;2023-07-29T06:30:03;98410.41;;;18.66;100.00
57708;BME280;43540;51.690;9.562;2023-07-29T06:32:29;98398.78;;;18.67;100.00
57708;BME280;43540;51.690;9.562;2023-07-29T06:34:56;98336.19;;;18.31;100.00
57708;BME280;43540;51.690;9.562;2023-07-29T06:37:22;98356.63;;;18.44;100.00
57708;BME280;43540;51.690;9.562;2023-07-29T06:39:49;98350.44;;;18.24;100.00
57708;BME280;43540;51.690;9.562;2023-07-29T06:42:16;98367.84;;;18.39;100.00
57708;BME280;43540;51.690;9.562;2023-07-29T06:44:42;98393.38;;;18.54;100.00
57708;BME280;43540;51.690;9.562;2023-07-29T06:47:09;98322.41;;;18.01;100.00
57708;BME280;43540;51.690;9.562;2023-07-29T06:49:35;98346.91;;;18.10;100.00
57708;BME280;43540;51.690;9.562;2023-07-29T06:52:02;98331.53;;;17.92;100.00
57708;BME280;43540;51.690;9.562;2023-07-29T06:54:28;98357.31;;;18.05;100.00
57708;BME280;43540;51.690;9.562;2023-07-29T06:56:55;98398.22;;;18.30;100.00
57708;BME280;43540;51.690;9.562;2023-07-29T06:59:21;98345.44;;;18.01;100.00
57708;BME280;43540;51.690;9.562;2023-07-29T07:01:48;98370.03;;;18.23;100.00
57708;BME280;43540;51.690;9.562;2023-07-29T07:04:15;98360.25;;;18.23;100.00
57708;BME280;43540;51.690;9.562;2023-07-29T07:06:41;98348.78;;;18.16;100.00
57708;BME280;43540;51.690;9.562;2023-07-29T07:09:08;98349.19;;;18.19;100.00
57708;BME280;43540;51.690;9.562;2023-07-29T07:11:34;98372.72;;;18.36;100.00
57708;BME280;43540;51.690;9.562;2023-07-29T07:14:01;98382.19;;;18.58;100.00
57708;BME280;43540;51.690;9.562;2023-07-29T07:16:27;98364.81;;;18.56;100.00
57708;BME280;43540;51.690;9.562;2023-07-29T07:18:57;98365.25;;;18.59;100.00
57708;BME280;43540;51.690;9.562;2023-07-29T07:21:23;98376.25;;;18.63;100.00
57708;BME280;43540;51.690;9.562;2023-07-29T07:23:50;98345.63;;;18.54;100.00
57708;BME280;43540;51.690;9.562;2023-07-29T07:26:17;98325.81;;;18.43;100.00
57708;BME280;43540;51.690;9.562;2023-07-29T07:28:43;98323.56;;;18.46;100.00
57708;BME280;43540;51.690;9.562;2023-07-29T07:31:10;98325.22;;;18.61;100.00
57708;BME280;43540;51.690;9.562;2023-07-29T07:33:36;98342.44;;;18.85;100.00
57708;BME280;43540;51.690;9.562;2023-07-29T07:36:03;98337.53;;;18.68;100.00
57708;BME280;43540;51.690;9.562;2023-07-29T07:38:29;98414.38;;;19.03;100.00
57708;BME280;43540;51.690;9.562;2023-07-29T07:40:56;98428.03;;;19.00;100.00
57708;BME280;43540;51.690;9.562;2023-07-29T07:43:23;98376.44;;;18.55;100.00
57708;BME280;43540;51.690;9.562;2023-07-29T07:45:58;98428.84;;;18.94;100.00
57708;BME280;43540;51.690;9.562;2023-07-29T07:48:25;98374.59;;;18.55;100.00
57708;BME280;43540;51.690;9.562;2023-07-29T07:50:52;98404.31;;;18.79;100.00
57708;BME280;43540;51.690;9.562;2023-07-29T07:53:18;98413.50;;;18.76;100.00
57708;BME280;43540;51.690;9.562;2023-07-29T07:55:46;98353.09;;;18.24;100.00
57708;BME280;43540;51.690;9.562;2023-07-29T07:58:13;98338.22;;;18.23;100.00
57708;BME280;43540;51.690;9.562;2023-07-29T08:00:39;98349.66;;;18.36;100.00
57708;BME280;43540;51.690;9.562;2023-07-29T08:03:06;98345.56;;;18.21;100.00
57708;BME280;43540;51.690;9.562;2023-07-29T08:05:32;98387.09;;;18.61;100.00
57708;BME280;43540;51.690;9.562;2023-07-29T08:07:59;98351.13;;;18.39;100.00
57708;BME280;43540;51.690;9.562;2023-07-29T08:10:25;98355.19;;;18.41;100.00
57708;BME280;43540;51.690;9.562;2023-07-29T08:12:52;98341.69;;;18.36;100.00
57708;BME280;43540;51.690;9.562;2023-07-29T08:15:18;98361.53;;;18.54;100.00
57708;BME280;43540;51.690;9.562;2023-07-29T08:17:45;98352.56;;;18.48;100.00
57708;BME280;43540;51.690;9.562;2023-07-29T08:20:12;98324.75;;;18.24;100.00
57708;BME280;43540;51.690;9.562;2023-07-29T08:22:39;98404.84;;;18.61;100.00
57708;BME280;43540;51.690;9.562;2023-07-29T08:25:06;98372.78;;;18.49;100.00
57708;BME280;43540;51.690;9.562;2023-07-29T08:27:33;98392.81;;;18.58;100.00
57708;BME280;43540;51.690;9.562;2023-07-29T08:30:01;98397.97;;;18.80;100.00
57708;BME280;43540;51.690;9.562;2023-07-29T08:32:27;98371.41;;;18.66;100.00
57708;BME280;43540;51.690;9.562;2023-07-29T08:34:54;98373.66;;;18.83;100.00
57708;BME280;43540;51.690;9.562;2023-07-29T08:37:21;98379.19;;;18.81;100.00
57708;BME280;43540;51.690;9.562;2023-07-29T08:39:47;98360.22;;;18.84;100.00
57708;BME280;43540;51.690;9.562;2023-07-29T08:42:17;98359.41;;;18.84;100.00
57708;BME280;43540;51.690;9.562;2023-07-29T08:44:46;98369.00;;;18.85;100.00
57708;BME280;43540;51.690;9.562;2023-07-29T08:47:15;98354.88;;;18.71;100.00
57708;BME280;43540;51.690;9.562;2023-07-29T08:49:44;98336.72;;;18.68;100.00
57708;BME280;43540;51.690;9.562;2023-07-29T08:52:12;98356.94;;;18.82;100.00
57708;BME280;43540;51.690;9.562;2023-07-29T08:54:39;98351.44;;;18.84;100.00
57708;BME280;43540;51.690;9.562;2023-07-29T08:57:06;98357.75;;;18.89;100.00
57708;BME280;43540;51.690;9.562;2023-07-29T08:59:33;98358.59;;;19.03;100.00
57708;BME280;43540;51.690;9.562;2023-07-29T09:01:59;98305.63;;;18.62;100.00
57708;BME280;43540;51.690;9.562;2023-07-29T09:04:26;98377.81;;;19.12;100.00
57708;BME280;43540;51.690;9.562;2023-07-29T09:06:53;98381.06;;;19.14;100.00
57708;BME280;43540;51.690;9.562;2023-07-29T09:09:22;98362.25;;;19.09;100.00
57708;BME280;43540;51.690;9.562;2023-07-29T09:11:48;98421.75;;;19.67;100.00
57708;BME280;43540;51.690;9.562;2023-07-29T09:14:17;98419.44;;;19.84;100.00
57708;BME280;43540;51.690;9.562;2023-07-29T09:16:43;98352.84;;;19.59;100.00
57708;BME280;43540;51.690;9.562;2023-07-29T09:19:10;98323.38;;;19.54;100.00
57708;BME280;43540;51.690;9.562;2023-07-29T09:21:40;98392.00;;;19.97;100.00
57708;BME280;43540;51.690;9.562;2023-07-29T09:24:08;98412.63;;;20.21;100.00
57708;BME280;43540;51.690;9.562;2023-07-29T09:26:35;98399.91;;;20.23;100.00
57708;BME280;43540;51.690;9.562;2023-07-29T09:29:03;98340.06;;;19.94;100.00
57708;BME280;43540;51.690;9.562;2023-07-29T09:31:30;98378.41;;;20.25;100.00
57708;BME280;43540;51.690;9.562;2023-07-29T09:34:02;98376.06;;;20.41;100.00
57708;BME280;43540;51.690;9.562;2023-07-29T09:36:33;98376.69;;;20.37;100.00
57708;BME280;43540;51.690;9.562;2023-07-29T09:39:01;98363.28;;;20.18;100.00
57708;BME280;43540;51.690;9.562;2023-07-29T09:41:29;98315.88;;;20.02;100.00
57708;BME280;43540;51.690;9.562;2023-07-29T09:43:59;98397.28;;;20.68;100.00
57708;BME280;43540;51.690;9.562;2023-07-29T09:46:35;98371.19;;;20.77;100.00
57708;BME280;43540;51.690;9.562;2023-07-29T09:49:04;98371.53;;;20.87;100.00
57708;BME280;43540;51.690;9.562;2023-07-29T09:51:37;98347.72;;;20.67;100.00
57708;BME280;43540;51.690;9.562;2023-07-29T09:54:09;98391.63;;;20.83;100.00
57708;BME280;43540;51.690;9.562;2023-07-29T09:56:41;98364.81;;;20.46;100.00
57708;BME280;43540;51.690;9.562;2023-07-29T09:59:10;98245.75;;;19.39;100.00
57708;BME280;43540;51.690;9.562;2023-07-29T10:01:37;98385.31;;;19.81;100.00
57708;BME280;43540;51.690;9.562;2023-07-29T10:04:05;98349.41;;;19.12;100.00
57708;BME280;43540;51.690;9.562;2023-07-29T10:06:34;98415.19;;;19.50;100.00
57708;BME280;43540;51.690;9.562;2023-07-29T10:09:03;98358.38;;;19.04;100.00
57708;BME280;43540;51.690;9.562;2023-07-29T10:11:30;98303.03;;;18.75;100.00
57708;BME280;43540;51.690;9.562;2023-07-29T10:13:57;98377.97;;;19.43;100.00
57708;BME280;43540;51.690;9.562;2023-07-29T10:16:36;98339.16;;;19.42;100.00
57708;BME280;43540;51.690;9.562;2023-07-29T10:19:07;98334.44;;;19.51;100.00
57708;BME280;43540;51.690;9.562;2023-07-29T10:21:35;98373.47;;;19.77;100.00
57708;BME280;43540;51.690;9.562;2023-07-29T10:24:06;98328.69;;;19.67;100.00
57708;BME280;43540;51.690;9.562;2023-07-29T10:26:37;98344.75;;;19.99;100.00
57708;BME280;43540;51.690;9.562;2023-07-29T10:29:12;98400.41;;;20.58;100.00
57708;BME280;43540;51.690;9.562;2023-07-29T10:31:40;98398.19;;;20.87;100.00
57708;BME280;43540;51.690;9.562;2023-07-29T10:34:10;98323.56;;;20.24;100.00
57708;BME280;43540;51.690;9.562;2023-07-29T10:36:37;98368.59;;;20.63;100.00
57708;BME280;43540;51.690;9.562;2023-07-29T10:39:06;98356.13;;;20.57;100.00
57708;BME280;43540;51.690;9.562;2023-07-29T10:41:54;98353.63;;;20.69;100.00
57708;BME280;43540;51.690;9.562;2023-07-29T10:49:45;98266.88;;;19.78;100.00
57708;BME280;43540;51.690;9.562;2023-07-29T10:52:17;98385.94;;;20.79;100.00
57708;BME280;43540;51.690;9.562;2023-07-29T10:54:53;98366.84;;;20.82;100.00
57708;BME280;43540;51.690;9.562;2023-07-29T10:57:38;98416.66;;;21.38;100.00
57708;BME280;43540;51.690;9.562;2023-07-29T11:00:07;98418.25;;;21.46;100.00
57708;BME280;43540;51.690;9.562;2023-07-29T11:02:35;98342.91;;;21.07;100.00
57708;BME280;43540;51.690;9.562;2023-07-29T11:05:16;98361.06;;;21.17;100.00
57708;BME280;43540;51.690;9.562;2023-07-29T11:07:49;98402.84;;;21.23;100.00
57708;BME280;43540;51.690;9.562;2023-07-29T11:10:16;98359.97;;;20.99;100.00
57708;BME280;43540;51.690;9.562;2023-07-29T11:12:50;98369.09;;;20.85;100.00
57708;BME280;43540;51.690;9.562;2023-07-29T11:15:28;98425.38;;;21.20;100.00
57708;BME280;43540;51.690;9.562;2023-07-29T11:17:57;98424.56;;;21.26;100.00
57708;BME280;43540;51.690;9.562;2023-07-29T11:20:25;98348.19;;;20.82;100.00
57708;BME280;43540;51.690;9.562;2023-07-29T11:22:54;98357.47;;;21.05;100.00
57708;BME280;43540;51.690;9.562;2023-07-29T11:25:22;98430.44;;;21.60;100.00
57708;BME280;43540;51.690;9.562;2023-07-29T11:27:50;98374.59;;;21.15;100.00
57708;BME280;43540;51.690;9.562;2023-07-29T11:30:17;98373.59;;;21.10;100.00
57708;BME280;43540;51.690;9.562;2023-07-29T11:32:45;98294.34;;;20.80;100.00
57708;BME280;43540;51.690;9.562;2023-07-29T11:35:14;98375.28;;;21.36;100.00
57708;BME280;43540;51.690;9.562;2023-07-29T11:37:45;98422.91;;;21.94;100.00
57708;BME280;43540;51.690;9.562;2023-07-29T11:40:17;98371.63;;;21.73;100.00
57708;BME280;43540;51.690;9.562;2023-07-29T11:42:45;98430.81;;;22.25;100.00
57708;BME280;43540;51.690;9.562;2023-07-29T11:45:13;98440.09;;;22.23;100.00
57708;BME280;43540;51.690;9.562;2023-07-29T11:47:43;98440.50;;;22.20;100.00
57708;BME280;43540;51.690;9.562;2023-07-29T11:50:11;98381.66;;;21.96;100.00
57708;BME280;43540;51.690;9.562;2023-07-29T11:52:45;98412.72;;;22.27;100.00
57708;BME280;43540;51.690;9.562;2023-07-29T11:55:13;98410.41;;;22.12;100.00
57708;BME280;43540;51.690;9.562;2023-07-29T11:57:41;98447.66;;;22.26;100.00
57708;BME280;43540;51.690;9.562;2023-07-29T12:00:10;98403.13;;;22.01;100.00
57708;BME280;43540;51.690;9.562;2023-07-29T12:02:41;98423.06;;;21.99;100.00
57708;BME280;43540;51.690;9.562;2023-07-29T12:05:12;98421.56;;;22.03;100.00
57708;BME280;43540;51.690;9.562;2023-07-29T12:07:39;98402.03;;;22.09;100.00
57708;BME280;43540;51.690;9.562;2023-07-29T12:10:08;98412.59;;;22.22;100.00
57708;BME280;43540;51.690;9.562;2023-07-29T12:12:44;98420.25;;;22.49;100.00
57708;BME280;43540;51.690;9.562;2023-07-29T12:15:11;98383.31;;;22.46;100.00
57708;BME280;43540;51.690;9.562;2023-07-29T12:17:42;98459.34;;;22.61;100.00
57708;BME280;43540;51.690;9.562;2023-07-29T12:20:10;98465.00;;;22.35;100.00
57708;BME280;43540;51.690;9.562;2023-07-29T12:22:37;98384.22;;;21.84;99.89
57708;BME280;43540;51.690;9.562;2023-07-29T12:25:04;98433.81;;;22.47;100.00
57708;BME280;43540;51.690;9.562;2023-07-29T12:27:31;98413.72;;;22.45;94.58
57708;BME280;43540;51.690;9.562;2023-07-29T12:29:58;98416.09;;;22.53;96.03
57708;BME280;43540;51.690;9.562;2023-07-29T12:32:29;98310.50;;;22.08;97.20
57708;BME280;43540;51.690;9.562;2023-07-29T12:34:56;98396.59;;;22.52;90.84
57708;BME280;43540;51.690;9.562;2023-07-29T12:37:31;98400.84;;;22.71;100.00
57708;BME280;43540;51.690;9.562;2023-07-29T12:39:57;98419.78;;;22.70;88.73
57708;BME280;43540;51.690;9.562;2023-07-29T12:42:24;98333.97;;;22.18;89.36
57708;BME280;43540;51.690;9.562;2023-07-29T12:44:50;98394.81;;;22.76;97.57
57708;BME280;43540;51.690;9.562;2023-07-29T12:47:17;98350.81;;;22.79;95.37
57708;BME280;43540;51.690;9.562;2023-07-29T12:49:43;98412.72;;;23.17;93.32
57708;BME280;43540;51.690;9.562;2023-07-29T12:52:10;98378.44;;;22.73;89.37
57708;BME280;43540;51.690;9.562;2023-07-29T12:54:37;98333.78;;;22.50;90.86
57708;BME280;43540;51.690;9.562;2023-07-29T12:57:03;98416.78;;;23.08;86.97
57708;BME280;43540;51.690;9.562;2023-07-29T12:59:30;98442.13;;;23.17;88.38